Time;durP1;ratioP1;P1;durP2;ratioP2;P2;SDS_P1;SDS_P2;PMS_P1;PMS_P2;Temp;Humidity;BMP_temperature;BMP_pressure;BME280_temperature;BME280_humidity;BME280_pressure;Samples;Min_cycle;Max_cycle;Signal;HPM_P1;HPM_P2
2021/07/25 00:00:57;;;;;;;12.68;9.85;;;;;;;19.98;87.75;98108.31;5031273;28;20073;-62
2021/07/25 00:03:22;;;;;;;12.45;9.05;;;;;;;19.98;88.36;98114.34;5030134;28;20033;-63
2021/07/25 00:05:48;;;;;;;11.70;9.95;;;;;;;19.84;90.79;98104.00;5028743;28;20041;-62
2021/07/25 00:08:13;;;;;;;9.38;8.48;;;;;;;19.78;90.54;98116.56;5033209;28;20078;-62
2021/07/25 00:10:44;;;;;;;7.55;6.82;;;;;;;19.79;91.08;98110.44;5035111;28;20063;-63
2021/07/25 00:13:11;;;;;;;10.57;8.50;;;;;;;19.72;91.73;98109.16;5032959;28;20033;-63
2021/07/25 00:15:37;;;;;;;9.60;8.13;;;;;;;19.66;92.76;98118.19;5029006;28;20037;-63
2021/07/25 00:18:03;;;;;;;10.15;9.15;;;;;;;19.64;93.67;98119.22;5032786;28;20029;-63
2021/07/25 00:20:29;;;;;;;10.20;8.13;;;;;;;19.60;94.11;98122.00;5030540;28;20029;-63
2021/07/25 00:22:55;;;;;;;10.77;9.68;;;;;;;19.61;95.32;98123.66;5034979;28;20371;-63
2021/07/25 00:25:20;;;;;;;13.80;9.57;;;;;;;19.64;95.73;98134.81;5033498;28;20060;-63
2021/07/25 00:27:52;;;;;;;10.88;8.98;;;;;;;19.67;96.05;98139.81;5031053;28;20036;-63
2021/07/25 00:30:19;;;;;;;10.68;8.32;;;;;;;19.68;95.36;98137.13;5032209;28;20504;-63
2021/07/25 00:32:45;;;;;;;7.78;6.70;;;;;;;19.67;95.62;98140.66;5035117;28;20037;-63
2021/07/25 00:35:11;;;;;;;7.30;6.43;;;;;;;19.61;95.50;98146.25;5026773;28;20051;-63
2021/07/25 00:37:36;;;;;;;6.28;5.68;;;;;;;19.61;95.88;98157.47;5033463;28;20029;-63
2021/07/25 00:40:03;;;;;;;5.50;5.00;;;;;;;19.64;95.47;98150.44;5029455;28;20041;-63
2021/07/25 00:42:39;;;;;;;4.88;4.45;;;;;;;19.59;95.41;98161.13;5036725;28;20030;-62
2021/07/25 00:45:05;;;;;;;6.28;5.15;;;;;;;19.57;96.10;98153.41;5031049;28;20104;-63
2021/07/25 00:47:31;;;;;;;6.45;5.28;;;;;;;19.55;96.54;98147.47;5031602;28;20025;-63
2021/07/25 00:49:56;;;;;;;4.95;4.55;;;;;;;19.59;96.83;98142.91;5027150;28;20287;-63
2021/07/25 00:52:22;;;;;;;6.00;5.40;;;;;;;19.59;97.49;98158.53;5033649;28;20034;-62
2021/07/25 00:54:47;;;;;;;6.95;5.22;;;;;;;19.59;96.76;98155.91;5031622;28;20029;-63
2021/07/25 00:57:13;;;;;;;6.57;4.85;;;;;;;19.73;96.03;98160.25;5030663;28;20037;-63
2021/07/25 00:59:38;;;;;;;7.30;5.60;;;;;;;19.75;96.75;98164.41;5028445;28;20037;-63
2021/07/25 01:02:03;;;;;;;5.88;5.15;;;;;;;19.74;97.05;98147.13;5029574;28;20052;-63
2021/07/25 01:04:35;;;;;;;6.55;5.28;;;;;;;19.73;97.76;98147.25;5030133;28;20069;-63
2021/07/25 01:07:19;;;;;;;15.98;6.63;;;;;;;19.72;98.17;98149.00;5030080;28;20041;-63
2021/07/25 01:10:04;;;;;;;14.02;6.25;;;;;;;19.82;98.15;98141.44;5029321;28;20037;-63
2021/07/25 01:12:41;;;;;;;9.88;6.43;;;;;;;19.75;98.04;98140.16;5030925;28;20040;-63
2021/07/25 01:15:07;;;;;;;7.90;6.63;;;;;;;19.68;98.35;98136.31;5033798;28;20375;-64
2021/07/25 01:17:37;;;;;;;6.15;5.35;;;;;;;19.70;97.65;98139.63;5028664;28;20091;-63
2021/07/25 01:20:05;;;;;;;6.28;5.45;;;;;;;19.56;96.80;98135.31;5020653;28;20033;-64
2021/07/25 01:22:34;;;;;;;5.30;4.68;;;;;;;19.45;94.92;98140.34;5031785;28;20115;-64
2021/07/25 01:25:01;;;;;;;5.13;4.68;;;;;;;19.52;94.73;98144.22;5031088;28;20080;-63
2021/07/25 01:27:30;;;;;;;5.10;4.60;;;;;;;19.48;94.75;98148.78;5032645;28;20037;-63
2021/07/25 01:29:57;;;;;;;7.22;5.80;;;;;;;19.38;95.25;98136.44;5030985;28;20037;-63
2021/07/25 01:32:25;;;;;;;6.60;5.85;;;;;;;19.38;95.91;98150.28;5027017;28;20414;-63
2021/07/25 01:34:53;;;;;;;11.32;5.55;;;;;;;19.36;97.06;98165.13;5031535;28;20041;-63
2021/07/25 01:37:19;;;;;;;6.60;5.43;;;;;;;19.31;97.00;98161.97;5028094;28;20418;-63
2021/07/25 01:39:44;;;;;;;6.85;6.00;;;;;;;19.23;97.57;98153.78;5028757;28;20034;-63
2021/07/25 01:42:10;;;;;;;7.07;5.30;;;;;;;19.24;97.26;98171.06;5023455;28;20086;-64
2021/07/25 01:44:35;;;;;;;5.75;5.25;;;;;;;19.27;98.11;98170.03;5030095;28;20118;-63
2021/07/25 01:47:01;;;;;;;5.70;5.10;;;;;;;19.30;97.73;98168.09;5032909;28;20049;-63
2021/07/25 01:49:26;;;;;;;5.85;5.35;;;;;;;19.33;98.62;98174.88;5028551;28;20041;-63
2021/07/25 01:51:51;;;;;;;7.50;5.57;;;;;;;19.38;98.80;98160.66;5027852;28;20406;-63
2021/07/25 01:54:17;;;;;;;8.50;5.88;;;;;;;19.38;98.78;98154.63;5027501;28;20048;-63
2021/07/25 01:56:42;;;;;;;6.70;6.00;;;;;;;19.38;98.65;98158.06;5029818;28;20033;-63
2021/07/25 01:59:08;;;;;;;6.88;6.03;;;;;;;19.41;98.69;98154.44;5029742;28;20433;-63
2021/07/25 02:01:33;;;;;;;7.00;6.30;;;;;;;19.38;98.93;98149.44;5026037;28;20053;-63
2021/07/25 02:03:58;;;;;;;7.60;6.15;;;;;;;19.36;98.55;98143.47;5027503;28;20272;-63
2021/07/25 02:06:24;;;;;;;6.88;5.63;;;;;;;19.34;99.09;98142.75;5028899;28;20041;-63
2021/07/25 02:08:50;;;;;;;6.15;5.15;;;;;;;19.35;99.34;98139.22;5027834;28;20029;-63
2021/07/25 02:11:15;;;;;;;7.07;6.15;;;;;;;19.37;99.85;98147.75;5029843;28;20111;-63
2021/07/25 02:13:40;;;;;;;6.88;6.03;;;;;;;19.39;99.63;98145.91;5026462;28;20151;-63
2021/07/25 02:16:06;;;;;;;7.00;6.30;;;;;;;19.34;98.84;98145.34;5027954;28;20036;-63
2021/07/25 02:18:31;;;;;;;7.47;6.85;;;;;;;19.29;98.78;98150.00;5031341;28;20071;-63
2021/07/25 02:20:57;;;;;;;9.38;6.68;;;;;;;19.29;98.82;98144.78;5028158;28;20057;-63
2021/07/25 02:23:22;;;;;;;7.10;6.50;;;;;;;19.31;98.23;98135.97;5028916;28;20041;-63
2021/07/25 02:25:47;;;;;;;8.00;7.28;;;;;;;19.29;98.39;98134.41;5028675;28;20065;-63
2021/07/25 02:28:13;;;;;;;8.48;7.07;;;;;;;19.25;98.62;98141.56;5029218;28;20042;-63
2021/07/25 02:30:38;;;;;;;9.13;7.90;;;;;;;19.23;99.13;98145.16;5029901;28;20044;-63
2021/07/25 02:33:05;;;;;;;10.40;7.78;;;;;;;19.26;98.87;98143.22;5027642;28;20111;-63
2021/07/25 02:35:30;;;;;;;7.72;6.93;;;;;;;19.23;99.00;98147.75;5025509;28;20493;-63
2021/07/25 02:37:56;;;;;;;10.85;7.53;;;;;;;19.18;99.02;98158.44;5031635;28;20120;-63
2021/07/25 02:40:22;;;;;;;8.52;7.68;;;;;;;19.18;99.58;98153.25;5028866;28;20063;-63
2021/07/25 02:42:47;;;;;;;10.95;8.15;;;;;;;19.14;98.73;98155.19;5029980;28;20048;-63
2021/07/25 02:45:13;;;;;;;8.20;7.40;;;;;;;19.07;98.98;98166.06;5026358;28;20033;-63
2021/07/25 02:47:38;;;;;;;8.82;7.38;;;;;;;19.03;99.52;98178.41;5029936;28;20476;-63
2021/07/25 02:50:05;;;;;;;9.80;8.70;;;;;;;19.04;99.36;98177.50;5028245;28;20029;-63
2021/07/25 02:52:30;;;;;;;11.30;8.85;;;;;;;18.94;99.36;98167.72;5031129;28;20049;-63
2021/07/25 02:54:55;;;;;;;9.15;8.18;;;;;;;18.94;99.86;98170.31;5028358;28;20048;-63
2021/07/25 02:57:21;;;;;;;11.07;7.93;;;;;;;18.91;100.00;98179.16;5028751;28;20037;-63
2021/07/25 02:59:46;;;;;;;10.23;8.50;;;;;;;18.88;100.00;98178.50;5023635;28;20063;-63
2021/07/25 03:02:12;;;;;;;9.32;8.40;;;;;;;18.85;100.00;98182.09;5026904;28;20044;-63
2021/07/25 03:04:37;;;;;;;11.23;9.07;;;;;;;18.85;100.00;98184.69;5028134;28;20121;-63
2021/07/25 03:07:03;;;;;;;9.50;8.50;;;;;;;18.87;99.63;98184.63;5026992;28;20045;-63
2021/07/25 03:09:28;;;;;;;10.38;9.25;;;;;;;18.84;100.00;98179.63;5026662;28;20042;-63
2021/07/25 03:11:53;;;;;;;9.38;8.27;;;;;;;18.81;99.50;98180.63;5028055;28;20045;-63
2021/07/25 03:14:19;;;;;;;10.00;9.02;;;;;;;18.70;99.72;98176.06;5030159;28;20099;-63
2021/07/25 03:16:46;;;;;;;12.40;8.93;;;;;;;18.70;100.00;98177.81;5029768;28;20289;-63
2021/07/25 03:19:11;;;;;;;12.38;8.23;;;;;;;18.63;99.26;98184.28;5028112;28;20123;-62
2021/07/25 03:21:36;;;;;;;11.75;8.05;;;;;;;18.58;98.87;98194.13;5026928;28;20399;-63
2021/07/25 03:24:02;;;;;;;8.30;7.60;;;;;;;18.53;98.67;98189.19;5025064;28;20041;-63
2021/07/25 03:26:28;;;;;;;11.65;8.38;;;;;;;18.48;99.39;98192.94;5027486;28;20294;-63
2021/07/25 03:28:53;;;;;;;9.27;8.38;;;;;;;18.49;99.35;98186.84;5026474;28;20088;-63
2021/07/25 03:31:18;;;;;;;14.25;8.30;;;;;;;18.47;99.08;98188.66;5030983;28;20048;-63
2021/07/25 03:33:44;;;;;;;11.93;9.05;;;;;;;18.42;99.13;98185.50;5042419;28;20056;-63
2021/07/25 03:36:09;;;;;;;9.45;8.52;;;;;;;18.40;99.07;98183.00;5027616;28;20036;-63
2021/07/25 03:38:35;;;;;;;10.18;8.13;;;;;;;18.38;100.00;98186.59;5025753;28;20041;-63
2021/07/25 03:41:02;;;;;;;10.43;9.32;;;;;;;18.38;99.78;98192.63;5027845;28;20428;-63
2021/07/25 03:43:29;;;;;;;9.95;8.68;;;;;;;18.45;99.61;98182.75;5028512;28;20334;-63
2021/07/25 03:45:55;;;;;;;9.85;8.85;;;;;;;18.43;99.94;98187.19;5027347;28;20331;-63
2021/07/25 03:48:21;;;;;;;11.27;8.60;;;;;;;18.45;99.92;98187.94;5028518;28;20057;-62
2021/07/25 03:50:47;;;;;;;10.30;8.93;;;;;;;18.41;100.00;98195.06;5026378;28;20386;-62
2021/07/25 03:53:12;;;;;;;10.10;9.07;;;;;;;18.39;100.00;98193.47;5028484;28;20036;-62
2021/07/25 03:55:41;;;;;;;11.55;10.35;;;;;;;18.40;100.00;98193.41;5028503;28;20037;-63
2021/07/25 03:58:07;;;;;;;11.88;9.10;;;;;;;18.41;100.00;98191.63;5033290;28;20037;-63
2021/07/25 04:00:32;;;;;;;12.13;9.82;;;;;;;18.42;100.00;98198.47;5026020;28;20090;-63
2021/07/25 04:02:58;;;;;;;15.10;10.80;;;;;;;18.44;100.00;98199.25;5026408;28;20033;-63
2021/07/25 04:05:24;;;;;;;10.93;9.80;;;;;;;18.51;99.87;98205.75;5031486;28;20028;-63
2021/07/25 04:07:49;;;;;;;10.85;9.68;;;;;;;18.51;99.27;98213.53;5031580;28;20029;-63
2021/07/25 04:10:15;;;;;;;10.98;9.88;;;;;;;18.53;99.33;98217.75;5024478;28;20052;-63
2021/07/25 04:12:40;;;;;;;13.27;11.73;;;;;;;18.60;98.95;98220.81;5025119;28;20128;-63
2021/07/25 04:15:06;;;;;;;11.20;10.02;;;;;;;18.64;98.92;98217.13;5021762;28;20037;-63
2021/07/25 04:17:34;;;;;;;13.45;10.75;;;;;;;18.63;98.59;98218.88;5025905;28;20033;-63
2021/07/25 04:20:00;;;;;;;11.77;10.60;;;;;;;18.69;98.34;98218.53;5026982;28;20037;-63
2021/07/25 04:22:25;;;;;;;11.55;10.27;;;;;;;18.75;97.86;98224.31;5028435;28;20042;-63
2021/07/25 04:24:51;;;;;;;12.45;11.15;;;;;;;18.79;97.59;98223.19;5031535;28;20061;-63
2021/07/25 04:27:16;;;;;;;12.60;11.30;;;;;;;18.80;96.46;98233.47;5034813;28;20124;-63
2021/07/25 04:29:42;;;;;;;11.73;10.05;;;;;;;18.91;96.80;98241.50;5030199;28;20383;-63
2021/07/25 04:32:08;;;;;;;13.23;10.50;;;;;;;19.05;96.85;98243.28;5034623;28;20341;-64
2021/07/25 04:34:34;;;;;;;10.23;9.07;;;;;;;19.09;95.80;98245.63;5029495;28;20037;-63
2021/07/25 04:37:01;;;;;;;11.50;10.40;;;;;;;19.15;94.59;98234.84;5032818;28;20040;-64
2021/07/25 04:39:27;;;;;;;10.80;9.13;;;;;;;19.14;94.53;98240.97;5030392;28;20060;-64
2021/07/25 04:41:56;;;;;;;10.05;9.07;;;;;;;19.19;94.00;98238.09;5031030;28;20383;-63
2021/07/25 04:44:55;;;;;;;10.15;9.18;;;;;;;19.31;93.42;98233.94;5032130;28;20302;-63
2021/07/25 04:47:30;;;;;;;10.57;9.50;;;;;;;19.32;93.30;98230.38;5033344;28;20033;-64
2021/07/25 04:49:58;;;;;;;10.05;9.05;;;;;;;19.34;91.88;98228.53;5030244;28;20033;-63
2021/07/25 04:52:26;;;;;;;10.50;9.50;;;;;;;19.48;92.13;98228.53;5031507;28;20088;-64
2021/07/25 04:54:57;;;;;;;11.23;9.45;;;;;;;19.49;91.83;98225.03;5032976;28;20889;-64
2021/07/25 04:57:25;;;;;;;11.48;10.40;;;;;;;19.42;91.58;98231.50;5034439;28;20043;-64
2021/07/25 04:59:54;;;;;;;11.68;10.43;;;;;;;19.44;92.59;98233.09;5027973;28;20017;-64
2021/07/25 05:02:23;;;;;;;11.77;10.00;;;;;;;19.50;91.90;98242.31;5032338;28;20034;-64
2021/07/25 05:04:49;;;;;;;11.23;9.55;;;;;;;19.54;91.53;98235.97;5027976;28;20394;-64
2021/07/25 05:07:15;;;;;;;12.55;11.25;;;;;;;19.41;93.61;98230.66;5031373;28;20037;-63
2021/07/25 05:09:42;;;;;;;17.17;11.20;;;;;;;19.49;93.43;98227.63;5030447;28;20033;-64
2021/07/25 05:12:10;;;;;;;12.05;10.85;;;;;;;19.54;92.56;98229.03;5028472;28;20025;-62
2021/07/25 05:14:44;;;;;;;12.50;11.27;;;;;;;19.48;93.76;98223.34;5028812;28;20040;-63
2021/07/25 05:17:49;;;;;;;12.30;11.02;;;;;;;19.67;95.05;98223.91;5026873;28;20116;-63
2021/07/25 05:20:15;;;;;;;14.65;11.57;;;;;;;19.79;94.13;98220.53;5028295;28;20045;-63
2021/07/25 05:22:56;;;;;;;12.00;10.88;;;;;;;19.96;94.26;98217.69;5033268;28;20141;-64
2021/07/25 05:25:24;;;;;;;12.90;10.25;;;;;;;20.08;92.70;98218.69;5034546;28;20052;-62
2021/07/25 05:27:53;;;;;;;11.68;10.57;;;;;;;20.13;93.86;98215.78;5031060;28;20028;-63
2021/07/25 05:30:21;;;;;;;10.32;9.15;;;;;;;20.27;92.67;98220.94;5027258;28;20064;-63
2021/07/25 05:32:46;;;;;;;13.20;10.77;;;;;;;20.24;91.94;98218.53;5031646;28;20390;-63
2021/07/25 05:35:13;;;;;;;12.07;10.60;;;;;;;20.40;90.51;98219.25;5030077;28;20080;-63
2021/07/25 05:37:39;;;;;;;11.02;9.80;;;;;;;20.49;88.21;98216.88;5023560;28;20108;-63
2021/07/25 05:40:05;;;;;;;12.90;10.55;;;;;;;20.50;87.06;98221.13;5025322;28;20037;-63
2021/07/25 05:42:31;;;;;;;10.93;9.85;;;;;;;20.46;86.20;98214.47;5027394;28;20048;-64
2021/07/25 05:44:56;;;;;;;11.18;10.13;;;;;;;20.50;84.54;98221.13;5030689;28;20033;-64
2021/07/25 05:47:22;;;;;;;10.48;9.48;;;;;;;20.50;84.10;98225.50;5027024;28;20104;-64
2021/07/25 05:49:47;;;;;;;11.63;10.48;;;;;;;20.50;84.47;98215.09;5029225;28;20117;-64
2021/07/25 05:52:13;;;;;;;11.13;8.82;;;;;;;20.76;84.02;98213.38;5025339;28;20061;-64
2021/07/25 05:54:38;;;;;;;11.05;9.60;;;;;;;20.84;82.79;98214.53;5029382;28;20052;-64
2021/07/25 05:57:04;;;;;;;11.48;10.20;;;;;;;20.95;81.70;98212.03;5031668;28;20052;-64
2021/07/25 05:59:29;;;;;;;11.00;8.73;;;;;;;21.08;81.85;98211.22;5026669;28;20286;-64
2021/07/25 06:01:55;;;;;;;11.52;8.32;;;;;;;21.14;80.18;98216.84;5031254;28;20052;-64
2021/07/25 06:04:20;;;;;;;10.27;9.00;;;;;;;21.36;80.21;98216.22;5029038;28;20033;-64
2021/07/25 06:06:46;;;;;;;9.75;8.85;;;;;;;21.57;80.25;98214.72;5029234;28;20033;-64
2021/07/25 06:09:11;;;;;;;9.15;7.85;;;;;;;21.64;79.75;98210.72;5028920;28;20025;-64
2021/07/25 06:11:38;;;;;;;9.25;8.43;;;;;;;21.51;79.98;98212.56;5027277;28;20067;-64
2021/07/25 06:14:04;;;;;;;10.20;9.13;;;;;;;21.57;79.36;98212.13;5028088;28;20041;-64
2021/07/25 06:16:29;;;;;;;8.88;8.13;;;;;;;21.80;78.92;98215.72;5032478;28;20025;-64
2021/07/25 06:18:55;;;;;;;8.48;7.55;;;;;;;21.92;77.82;98214.88;5024002;28;20025;-64
2021/07/25 06:21:20;;;;;;;9.20;8.00;;;;;;;22.04;77.08;98214.00;5027413;28;20374;-64
2021/07/25 06:23:47;;;;;;;10.40;8.20;;;;;;;22.26;76.26;98218.50;5033172;28;20146;-64
2021/07/25 06:26:13;;;;;;;8.05;7.25;;;;;;;22.37;75.27;98215.09;5028681;28;20120;-64
2021/07/25 06:28:39;;;;;;;9.18;8.20;;;;;;;22.18;74.53;98210.38;5028532;28;20108;-64
2021/07/25 06:31:04;;;;;;;9.15;7.85;;;;;;;22.25;75.56;98216.81;5031267;28;20044;-64
2021/07/25 06:33:30;;;;;;;8.77;7.72;;;;;;;22.40;75.29;98213.09;5027765;28;20214;-64
2021/07/25 06:35:56;;;;;;;9.90;7.95;;;;;;;22.48;75.12;98213.38;5028638;28;20050;-64
2021/07/25 06:38:23;;;;;;;6.25;5.65;;;;;;;22.77;74.50;98203.38;5036817;28;20029;-64
2021/07/25 06:40:54;;;;;;;6.50;5.15;;;;;;;23.03;71.35;98198.81;5027532;28;20151;-64
2021/07/25 06:43:21;;;;;;;6.40;5.15;;;;;;;23.12;70.56;98203.34;5028457;28;20025;-65
2021/07/25 06:45:47;;;;;;;5.65;5.15;;;;;;;23.25;72.33;98198.81;5028540;28;20204;-65
2021/07/25 06:48:18;;;;;;;5.88;4.90;;;;;;;23.41;68.80;98196.69;5024991;28;20504;-64
2021/07/25 06:50:45;;;;;;;5.10;4.60;;;;;;;23.55;68.20;98200.88;5027111;28;20037;-64
2021/07/25 06:53:11;;;;;;;4.70;4.28;;;;;;;23.67;68.17;98190.25;5029010;28;20029;-63
2021/07/25 06:55:36;;;;;;;7.53;5.28;;;;;;;23.79;66.76;98191.06;5029514;28;20029;-64
2021/07/25 06:58:02;;;;;;;4.28;3.92;;;;;;;23.84;66.14;98191.53;5028394;28;20279;-64
2021/07/25 07:00:27;;;;;;;4.78;4.38;;;;;;;23.95;65.46;98199.34;5025094;28;20268;-64
2021/07/25 07:02:56;;;;;;;4.95;4.53;;;;;;;24.07;65.97;98198.38;5030885;28;20031;-64
2021/07/25 07:05:23;;;;;;;4.85;4.40;;;;;;;24.17;63.39;98198.50;5030236;28;20032;-64
2021/07/25 07:07:51;;;;;;;4.80;4.38;;;;;;;24.18;65.07;98199.34;5032721;28;20401;-64
2021/07/25 07:10:19;;;;;;;4.57;4.18;;;;;;;24.32;64.60;98202.47;5031703;28;20116;-63
2021/07/25 07:12:45;;;;;;;3.90;3.65;;;;;;;24.44;62.86;98200.66;5025233;28;20033;-65
2021/07/25 07:15:12;;;;;;;4.28;3.97;;;;;;;24.61;61.86;98197.47;5031361;28;20370;-67
2021/07/25 07:17:38;;;;;;;4.28;3.97;;;;;;;24.70;61.78;98203.72;5027849;28;20056;-65
2021/07/25 07:20:09;;;;;;;4.32;3.60;;;;;;;24.68;61.68;98197.78;5029354;28;20028;-63
2021/07/25 07:22:35;;;;;;;5.53;4.88;;;;;;;24.79;61.23;98188.06;5027359;28;20045;-64
2021/07/25 07:25:00;;;;;;;5.28;4.75;;;;;;;24.96;61.19;98189.28;5027031;28;20052;-64
2021/07/25 07:27:27;;;;;;;4.80;4.43;;;;;;;25.08;60.67;98196.13;5028521;28;20116;-64
2021/07/25 07:29:54;;;;;;;9.35;5.18;;;;;;;24.96;61.20;98195.38;5030037;28;20369;-64
2021/07/25 07:32:20;;;;;;;5.80;5.20;;;;;;;25.11;61.18;98185.38;5026768;28;20076;-67
2021/07/25 07:34:46;;;;;;;5.32;4.82;;;;;;;25.14;60.12;98194.78;5028405;28;20029;-68
2021/07/25 07:37:11;;;;;;;5.93;5.32;;;;;;;25.21;59.98;98194.13;5028663;28;20056;-68
2021/07/25 07:39:41;;;;;;;5.60;5.05;;;;;;;25.33;58.68;98195.69;5030739;28;20399;-68
2021/07/25 07:42:07;;;;;;;5.35;4.85;;;;;;;25.37;58.74;98186.63;5030930;28;20597;-67
2021/07/25 07:44:34;;;;;;;5.20;4.80;;;;;;;25.45;58.89;98196.44;5030811;28;20041;-69
2021/07/25 07:47:00;;;;;;;5.88;5.43;;;;;;;25.55;58.29;98201.75;5027495;28;20025;-68
2021/07/25 07:49:25;;;;;;;5.50;5.00;;;;;;;25.68;59.00;98199.72;5027402;28;20663;-68
2021/07/25 07:51:52;;;;;;;5.75;5.25;;;;;;;25.76;57.44;98197.25;5029327;28;20040;-68
2021/07/25 07:54:17;;;;;;;6.10;5.47;;;;;;;25.79;58.33;98197.81;5032334;28;20555;-68
2021/07/25 07:56:42;;;;;;;7.90;5.70;;;;;;;25.70;59.24;98197.78;5025079;28;20439;-68
2021/07/25 07:59:08;;;;;;;5.60;5.03;;;;;;;25.80;58.23;98198.66;5027261;28;20033;-70
2021/07/25 08:01:33;;;;;;;5.90;5.30;;;;;;;25.99;56.74;98201.31;5027957;28;20033;-68
2021/07/25 08:03:59;;;;;;;6.15;5.60;;;;;;;26.07;56.24;98195.38;5032265;28;20299;-69
2021/07/25 08:06:24;;;;;;;6.55;5.80;;;;;;;26.10;55.36;98203.81;5029560;28;20036;-69
2021/07/25 08:08:50;;;;;;;6.68;5.80;;;;;;;26.15;55.70;98206.84;5033011;28;20506;-69
2021/07/25 08:11:15;;;;;;;7.15;5.70;;;;;;;26.09;55.07;98204.81;5032662;28;20039;-68
2021/07/25 08:13:43;;;;;;;6.25;5.72;;;;;;;26.11;55.57;98199.38;5032105;28;20033;-67
2021/07/25 08:16:08;;;;;;;6.28;5.72;;;;;;;26.25;55.76;98199.03;5032386;28;20406;-68
2021/07/25 08:18:34;;;;;;;6.25;5.75;;;;;;;26.26;55.64;98198.91;5028681;28;20148;-68
2021/07/25 08:20:59;;;;;;;7.10;6.40;;;;;;;26.24;55.40;98187.69;5033944;28;20386;-68
2021/07/25 08:23:24;;;;;;;7.28;5.95;;;;;;;26.39;57.26;98192.53;5034087;28;20048;-68
2021/07/25 08:25:50;;;;;;;7.35;6.60;;;;;;;26.47;54.63;98190.03;5030514;28;20428;-68
2021/07/25 08:28:15;;;;;;;7.70;6.72;;;;;;;26.62;54.97;98183.38;5031448;28;20108;-69
2021/07/25 08:30:40;;;;;;;6.70;6.10;;;;;;;26.62;54.19;98186.81;5027001;28;20450;-68
2021/07/25 08:33:06;;;;;;;10.90;5.80;;;;;;;26.49;54.53;98196.81;5030554;28;20076;-70
2021/07/25 08:35:31;;;;;;;7.07;5.57;;;;;;;26.71;53.36;98203.56;5033376;28;20438;-70
2021/07/25 08:37:57;;;;;;;6.05;5.03;;;;;;;26.78;53.40;98205.50;5032687;28;20339;-70
2021/07/25 08:40:24;;;;;;;5.55;4.82;;;;;;;27.00;53.32;98211.44;5034075;28;20040;-70
2021/07/25 08:43:11;;;;;;;6.22;5.65;;;;;;;27.10;54.09;98209.63;5031257;28;20032;-70
2021/07/25 08:45:42;;;;;;;7.47;5.78;;;;;;;27.27;53.09;98193.09;5034110;28;20029;-71
2021/07/25 08:48:17;;;;;;;7.35;6.68;;;;;;;27.16;54.63;98190.59;5030956;28;20045;-70
2021/07/25 08:50:44;;;;;;;8.13;6.18;;;;;;;27.16;53.86;98194.06;5033867;28;20034;-71
2021/07/25 08:53:16;;;;;;;9.05;6.65;;;;;;;27.37;52.65;98196.47;5032889;28;20060;-71
2021/07/25 08:55:42;;;;;;;7.03;6.40;;;;;;;27.28;52.69;98198.19;5031581;28;20029;-71
2021/07/25 08:58:09;;;;;;;6.75;6.25;;;;;;;27.45;51.72;98195.78;5030789;28;20298;-71
2021/07/25 09:00:35;;;;;;;7.68;6.93;;;;;;;27.56;52.69;98195.63;5031915;28;20080;-71
2021/07/25 09:03:05;;;;;;;9.75;7.70;;;;;;;27.60;54.14;98192.53;5029627;28;20037;-71
2021/07/25 09:05:31;;;;;;;7.60;7.00;;;;;;;27.63;50.86;98189.59;5030105;28;20040;-71
2021/07/25 09:07:57;;;;;;;13.35;6.47;;;;;;;27.61;51.27;98196.00;5026248;28;20034;-71
2021/07/25 09:10:23;;;;;;;8.45;6.35;;;;;;;27.69;50.25;98194.31;5031650;28;20061;-71
2021/07/25 09:12:50;;;;;;;8.57;6.55;;;;;;;27.64;48.96;98191.28;5027579;28;20157;-70
2021/07/25 09:15:26;;;;;;;7.07;6.30;;;;;;;27.65;50.23;98197.38;5027943;28;20040;-71
2021/07/25 09:17:53;;;;;;;13.13;7.30;;;;;;;27.62;50.52;98200.31;5027539;28;20099;-71
2021/07/25 09:20:50;;;;;;;6.80;6.25;;;;;;;27.86;48.76;98192.69;5029222;28;20061;-71
2021/07/25 09:23:18;;;;;;;7.78;7.05;;;;;;;27.87;51.36;98194.34;5001694;28;20041;-72
2021/07/25 09:25:45;;;;;;;6.75;6.25;;;;;;;28.00;48.41;98193.97;5029236;28;20053;-71
2021/07/25 09:28:20;;;;;;;6.78;6.28;;;;;;;28.00;48.37;98186.91;5027113;28;20038;-71
2021/07/25 09:30:46;;;;;;;7.88;6.80;;;;;;;27.96;47.64;98190.81;5022785;28;20061;-71
2021/07/25 09:33:27;;;;;;;6.78;6.28;;;;;;;28.16;48.78;98186.25;5031651;28;20061;-71
2021/07/25 09:36:01;;;;;;;7.32;6.68;;;;;;;28.40;49.73;98185.66;5029534;28;20030;-70
2021/07/25 09:38:28;;;;;;;7.55;6.90;;;;;;;28.42;49.33;98184.53;5029604;28;20032;-70
2021/07/25 09:40:53;;;;;;;7.65;6.95;;;;;;;28.37;48.18;98183.31;5027555;28;20382;-71
2021/07/25 09:43:24;;;;;;;8.05;7.25;;;;;;;28.42;47.85;98187.16;5031916;28;20029;-71
2021/07/25 09:45:50;;;;;;;7.40;6.75;;;;;;;28.35;47.98;98187.91;5031749;28;20043;-71
2021/07/25 09:48:19;;;;;;;7.93;7.28;;;;;;;28.49;48.77;98182.09;5029637;28;20026;-71
2021/07/25 09:50:44;;;;;;;8.02;7.43;;;;;;;28.53;47.85;98173.72;5029355;28;20153;-71
2021/07/25 09:53:09;;;;;;;8.30;7.50;;;;;;;28.53;48.73;98179.00;5031621;28;20042;-71
2021/07/25 09:55:36;;;;;;;9.32;7.68;;;;;;;28.54;48.69;98177.19;5029477;28;20048;-70
2021/07/25 09:58:04;;;;;;;8.13;7.53;;;;;;;28.64;49.23;98179.75;5030672;28;20029;-71
2021/07/25 10:00:46;;;;;;;9.38;8.45;;;;;;;28.66;50.70;98172.50;5029083;28;20104;-71
2021/07/25 10:03:17;;;;;;;8.80;7.97;;;;;;;28.75;49.10;98172.44;5029120;28;20343;-69
2021/07/25 10:05:43;;;;;;;9.57;8.68;;;;;;;28.58;49.73;98171.47;5029756;28;20037;-69
2021/07/25 10:08:15;;;;;;;8.40;7.80;;;;;;;28.93;48.38;98165.31;5027506;28;20026;-68
2021/07/25 10:10:42;;;;;;;8.65;7.78;;;;;;;28.75;48.15;98159.25;5029008;28;20025;-72
2021/07/25 10:13:08;;;;;;;8.80;8.10;;;;;;;28.78;48.05;98158.94;5032245;28;20032;-73
2021/07/25 10:15:36;;;;;;;9.98;9.10;;;;;;;28.73;48.39;98163.84;5027751;28;20386;-70
2021/07/25 10:18:02;;;;;;;11.30;8.80;;;;;;;28.85;48.31;98160.00;5027945;28;20025;-69
2021/07/25 10:20:29;;;;;;;9.18;8.40;;;;;;;28.98;48.64;98156.94;5027344;28;20029;-69
2021/07/25 10:22:59;;;;;;;9.70;8.82;;;;;;;28.88;48.49;98156.19;5030325;28;20045;-69
2021/07/25 10:25:28;;;;;;;9.82;9.02;;;;;;;28.92;48.41;98154.91;5029999;28;20045;-73
2021/07/25 10:27:57;;;;;;;8.32;7.55;;;;;;;28.74;49.26;98147.03;5031697;28;20033;-70
2021/07/25 10:30:23;;;;;;;9.90;9.00;;;;;;;28.89;48.78;98142.84;5032704;28;20029;-69
2021/07/25 10:32:51;;;;;;;9.77;8.98;;;;;;;28.99;50.70;98148.00;5025292;28;20034;-69
2021/07/25 10:35:18;;;;;;;9.15;8.32;;;;;;;29.31;48.92;98147.38;5024794;28;20025;-69
2021/07/25 10:37:44;;;;;;;10.27;9.32;;;;;;;29.19;48.27;98145.97;5028661;28;20697;-69
2021/07/25 10:40:13;;;;;;;9.65;8.90;;;;;;;29.22;47.90;98151.78;5031588;28;20086;-70
2021/07/25 10:42:45;;;;;;;10.02;9.02;;;;;;;29.52;47.11;98155.72;5026024;28;20037;-72
2021/07/25 10:45:11;;;;;;;9.52;8.63;;;;;;;29.71;47.64;98144.88;5026969;28;20308;-69
2021/07/25 10:47:36;;;;;;;9.63;8.82;;;;;;;29.73;47.73;98142.09;5028450;28;20075;-69
2021/07/25 10:50:22;;;;;;;9.35;8.65;;;;;;;29.62;47.54;98140.56;5029171;28;20450;-69
2021/07/25 10:52:52;;;;;;;9.38;8.55;;;;;;;29.79;46.90;98144.09;5026373;28;20049;-70
2021/07/25 10:55:37;;;;;;;9.95;9.10;;;;;;;29.69;46.98;98140.75;5026336;28;20081;-70
2021/07/25 10:58:05;;;;;;;9.73;8.82;;;;;;;29.88;46.89;98138.66;5032090;28;20302;-70
2021/07/25 11:00:45;;;;;;;9.25;8.45;;;;;;;29.92;47.39;98125.94;5029120;28;20029;-71
2021/07/25 11:03:30;;;;;;;9.27;8.45;;;;;;;30.09;46.42;98126.78;5028200;28;20634;-70
2021/07/25 11:05:59;;;;;;;9.43;8.63;;;;;;;30.14;46.06;98135.06;5025952;28;20117;-69
2021/07/25 11:08:33;;;;;;;8.73;7.93;;;;;;;30.12;45.49;98121.19;5029485;28;20048;-69
2021/07/25 11:10:59;;;;;;;9.00;8.27;;;;;;;30.21;45.44;98122.84;5030315;28;20041;-70
2021/07/25 11:13:39;;;;;;;9.13;8.32;;;;;;;30.25;45.22;98119.72;5029587;28;20032;-69
2021/07/25 11:16:30;;;;;;;8.93;8.13;;;;;;;30.07;48.38;98113.75;5027290;28;20314;-70
2021/07/25 11:19:20;;;;;;;9.30;8.52;;;;;;;30.38;46.78;98116.56;4992859;28;20049;-71
2021/07/25 11:21:53;;;;;;;9.05;8.38;;;;;;;30.10;45.29;98118.72;4992523;28;20034;-71
2021/07/25 11:24:18;;;;;;;9.65;8.77;;;;;;;29.94;45.26;98111.59;4993320;28;20128;-72
2021/07/25 11:26:47;;;;;;;9.52;8.75;;;;;;;30.01;45.73;98114.41;4992387;28;20070;-71
2021/07/25 11:29:33;;;;;;;9.40;8.55;;;;;;;30.17;45.30;98110.97;4996759;28;20038;-71
2021/07/25 11:32:03;;;;;;;9.55;8.55;;;;;;;30.26;45.32;98096.72;4995976;28;20034;-71